メインページ
METAR-TAF:

METAR-TAF

空港 :

キャデラック, ミシガン州, アメリカ合衆国

緯度: 44-17N, 経度: 085-25W, 海抜: 398m

現時点の気象観測

当レポートは27分前の06:15(UTC)に作成
東/南東の風 3kt
気温 5°C
湿度 56%
気圧 1016 hPa
視程: 16.1km
高度7500ftの曇り

METAR: KCAD 040615Z AUTO 12003KT 10SM OVC075 05/M03 A3000 RMK AO2

時間: 02:42 (06:42 UTC)


TAF: 見つかりません

4,000以上の空港の気象観測と天気予報(METAR報とTAF報)

利用可能な観測所は地図上に黄色い丸と赤い丸で示す。

丸の上にカーソルを重ねると観測所名を参照できる。

次にクリックすると気象観測と天気予報を参照できる。

マップの切り替え:黒色「×」印の緑ボタンをクリックして拡大、「-」印の緑ボタンをクリックして縮小、緑色の三角印をクリックして隣りの地図に切り替え


METAR-TAF: